createdAt,value
2023-12-17T00:00:05.604Z,100466.41
2023-12-17T00:02:32.283Z,100486.78
2023-12-17T00:04:58.889Z,100481.63
2023-12-17T00:07:25.569Z,100481.44
2023-12-17T00:09:52.212Z,100486.28
2023-12-17T00:12:18.944Z,100485.09
2023-12-17T00:14:46.762Z,100493.09
2023-12-17T00:17:13.379Z,100474.81
2023-12-17T00:19:39.937Z,100492.03
2023-12-17T00:22:06.627Z,100495.19
2023-12-17T00:24:33.187Z,100485.75
2023-12-17T00:26:59.781Z,100480.03
2023-12-17T00:29:26.387Z,100482.28
2023-12-17T00:32:00.396Z,100484.91
2023-12-17T00:34:28.521Z,100469.47
2023-12-17T00:36:55.426Z,100466.00
2023-12-17T00:39:22.086Z,100474.28
2023-12-17T00:41:48.717Z,100465.34
2023-12-17T00:44:15.356Z,100462.19
2023-12-17T00:46:41.888Z,100468.16
2023-12-17T00:49:08.585Z,100427.63
2023-12-17T00:51:35.599Z,100459.16
2023-12-17T00:54:02.424Z,100449.31
2023-12-17T00:56:29.333Z,100439.03
2023-12-17T00:58:55.898Z,100406.56
2023-12-17T01:01:22.480Z,100428.53
2023-12-17T01:03:49.356Z,100424.31
2023-12-17T01:06:16.068Z,100424.19
2023-12-17T01:08:42.801Z,100435.94
2023-12-17T01:11:09.356Z,100448.28
2023-12-17T01:13:37.312Z,100449.09
2023-12-17T01:16:06.182Z,100460.75
2023-12-17T01:18:36.618Z,100450.88
2023-12-17T01:21:04.246Z,100450.34
2023-12-17T01:23:30.940Z,100454.59
2023-12-17T01:25:57.494Z,100462.50
2023-12-17T01:28:24.730Z,100465.00
2023-12-17T01:30:51.367Z,100461.69
2023-12-17T01:33:18.221Z,100474.31
2023-12-17T01:35:44.964Z,100476.91
2023-12-17T01:38:11.724Z,100463.13
2023-12-17T01:40:40.408Z,100486.06
2023-12-17T01:43:09.922Z,100478.94
2023-12-17T01:45:36.654Z,100484.59
2023-12-17T01:48:04.162Z,100490.47
2023-12-17T01:50:31.275Z,100494.38
2023-12-17T01:52:59.298Z,100486.59
2023-12-17T01:55:28.191Z,100449.31
2023-12-17T01:57:55.316Z,100489.97
2023-12-17T02:00:22.182Z,100489.84
2023-12-17T02:02:49.898Z,100486.91
2023-12-17T02:05:16.841Z,100485.44
2023-12-17T02:07:43.608Z,100478.00
2023-12-17T02:10:10.746Z,100461.06
2023-12-17T02:12:37.373Z,100470.31
2023-12-17T02:15:04.245Z,100477.84
2023-12-17T02:17:32.828Z,100472.50
2023-12-17T02:19:59.712Z,100465.91
2023-12-17T02:22:27.340Z,100464.28
2023-12-17T02:24:54.714Z,100476.09
2023-12-17T02:27:25.756Z,100449.59
2023-12-17T02:29:53.882Z,100461.22
2023-12-17T02:32:24.274Z,100467.88
2023-12-17T02:34:52.193Z,100461.34
2023-12-17T02:37:19.440Z,100458.00
2023-12-17T02:39:46.416Z,100456.50
2023-12-17T02:42:13.293Z,100464.16
2023-12-17T02:44:40.045Z,100457.75
2023-12-17T02:47:06.611Z,100449.84
2023-12-17T02:49:34.863Z,100444.09
2023-12-17T02:52:01.856Z,100438.47
2023-12-17T02:54:29.304Z,100432.69
2023-12-17T02:56:56.275Z,100398.81
2023-12-17T02:59:23.148Z,100426.03
2023-12-17T03:01:50.710Z,100426.97
2023-12-17T03:04:18.106Z,100427.59
2023-12-17T03:06:45.184Z,100426.97
2023-12-17T03:09:12.565Z,100426.97
2023-12-17T03:11:39.807Z,100425.81
2023-12-17T03:14:07.038Z,100435.63
2023-12-17T03:16:33.763Z,100417.16
2023-12-17T03:19:00.611Z,100443.59
2023-12-17T03:21:30.306Z,100438.25
2023-12-17T03:23:57.008Z,100432.44
2023-12-17T03:26:23.902Z,100435.97
2023-12-17T03:28:50.595Z,100432.00
2023-12-17T03:31:17.875Z,100393.38
2023-12-17T03:33:45.887Z,100431.28
2023-12-17T03:36:16.971Z,100432.19
2023-12-17T03:38:45.242Z,100430.22
2023-12-17T03:41:25.639Z,100334.50
2023-12-17T03:43:54.226Z,100416.84
2023-12-17T03:46:22.400Z,100417.28
2023-12-17T03:48:49.985Z,100412.03
2023-12-17T03:51:17.360Z,100404.91
2023-12-17T03:53:44.512Z,100405.94
2023-12-17T03:56:12.921Z,100400.38
2023-12-17T03:58:40.123Z,100392.41
2023-12-17T04:01:08.520Z,100399.13
2023-12-17T04:03:35.859Z,100401.13
2023-12-17T04:06:05.838Z,100397.13
2023-12-17T04:08:32.448Z,100396.31
2023-12-17T04:10:59.105Z,100328.41
2023-12-17T04:13:26.107Z,100392.00
2023-12-17T04:15:52.831Z,100396.72
2023-12-17T04:18:19.632Z,100382.97
2023-12-17T04:20:46.444Z,100386.09
2023-12-17T04:23:13.047Z,100375.09
2023-12-17T04:25:39.680Z,100389.38
2023-12-17T04:28:06.196Z,100394.63
2023-12-17T04:30:32.865Z,100383.28
2023-12-17T04:32:59.705Z,100380.34
2023-12-17T04:35:27.365Z,100387.47
2023-12-17T04:37:54.403Z,100387.69
2023-12-17T04:40:20.966Z,100399.22
2023-12-17T04:42:47.678Z,100400.91
2023-12-17T04:45:14.360Z,100390.00
2023-12-17T04:47:41.314Z,100394.41
2023-12-17T04:50:08.723Z,100384.13
2023-12-17T04:52:36.612Z,100378.88
2023-12-17T04:55:04.487Z,100372.78
2023-12-17T04:57:31.452Z,100365.44
2023-12-17T04:59:58.273Z,100372.19
2023-12-17T05:02:24.939Z,100368.78
2023-12-17T05:04:51.528Z,100381.63
2023-12-17T05:07:18.271Z,100377.09
2023-12-17T05:09:44.808Z,100374.69
2023-12-17T05:12:11.442Z,100361.56
2023-12-17T05:14:38.034Z,100380.78
2023-12-17T05:17:04.720Z,100393.38
2023-12-17T05:19:31.723Z,100393.44
2023-12-17T05:21:58.616Z,100387.28
2023-12-17T05:24:25.260Z,100399.03
2023-12-17T05:26:52.009Z,100402.63
2023-12-17T05:29:18.606Z,100391.88
2023-12-17T05:31:45.298Z,100392.66
2023-12-17T05:34:12.162Z,100392.94
2023-12-17T05:36:38.929Z,100386.53
2023-12-17T05:39:05.552Z,100396.06
2023-12-17T05:41:32.339Z,100385.59
2023-12-17T05:43:58.914Z,100374.47
2023-12-17T05:46:26.949Z,100386.63
2023-12-17T05:48:54.348Z,100382.03
2023-12-17T05:51:21.904Z,100375.53
2023-12-17T05:53:48.704Z,100385.28
2023-12-17T05:56:15.377Z,100383.19
2023-12-17T05:58:42.940Z,100393.78
2023-12-17T06:01:11.856Z,100383.19
2023-12-17T06:03:38.998Z,100382.56
2023-12-17T06:06:07.357Z,100392.94
2023-12-17T06:08:34.126Z,100366.16
2023-12-17T06:11:00.700Z,100390.00
2023-12-17T06:13:27.279Z,100384.31
2023-12-17T06:15:53.875Z,100361.03
2023-12-17T06:18:20.712Z,100379.41
2023-12-17T06:20:47.514Z,100386.34
2023-12-17T06:23:15.604Z,100381.19
2023-12-17T06:25:42.214Z,100380.25
2023-12-17T06:28:08.934Z,100394.63
2023-12-17T06:30:36.656Z,100388.00
2023-12-17T06:33:03.836Z,100380.56
2023-12-17T06:35:30.748Z,100394.09
2023-12-17T06:37:57.653Z,100387.81
2023-12-17T06:40:24.299Z,100346.25
2023-12-17T06:42:51.064Z,100379.59
2023-12-17T06:45:17.771Z,100376.56
2023-12-17T06:47:46.095Z,100328.53
2023-12-17T06:50:13.213Z,100387.16
2023-12-17T06:52:39.886Z,100385.59
2023-12-17T06:55:07.664Z,100385.69
2023-12-17T06:57:34.362Z,100386.88
2023-12-17T07:00:01.037Z,100373.53
2023-12-17T07:02:27.602Z,100375.53
2023-12-17T07:04:54.156Z,100382.34
2023-12-17T07:07:20.711Z,100390.94
2023-12-17T07:09:47.447Z,100370.88
2023-12-17T07:12:14.124Z,100383.78
2023-12-17T07:14:41.320Z,100379.28
2023-12-17T07:17:08.074Z,100374.56
2023-12-17T07:19:34.876Z,100391.47
2023-12-17T07:22:01.432Z,100385.69
2023-12-17T07:24:28.092Z,100384.31
2023-12-17T07:26:54.705Z,100373.63
2023-12-17T07:29:21.354Z,100383.78
2023-12-17T07:31:47.886Z,100390.94
2023-12-17T07:34:16.969Z,100383.47
2023-12-17T07:36:45.673Z,100391.47
2023-12-17T07:39:12.319Z,100378.00
2023-12-17T07:41:39.695Z,100391.66
2023-12-17T07:44:06.302Z,100386.63
2023-12-17T07:46:32.894Z,100388.31
2023-12-17T07:48:59.575Z,100395.94
2023-12-17T07:51:26.370Z,100383.75
2023-12-17T07:53:52.964Z,100389.34
2023-12-17T07:56:19.698Z,100390.41
2023-12-17T07:58:46.238Z,100369.81
2023-12-17T08:01:12.920Z,100392.19
2023-12-17T08:03:39.622Z,100382.22
2023-12-17T08:06:06.818Z,100382.97
2023-12-17T08:08:33.498Z,100307.97
2023-12-17T08:11:00.039Z,100380.97
2023-12-17T08:13:26.640Z,100380.56
2023-12-17T08:15:53.420Z,100379.28
2023-12-17T08:18:20.100Z,100390.84
2023-12-17T08:20:46.930Z,100390.53
2023-12-17T08:23:13.542Z,100389.97
2023-12-17T08:25:40.256Z,100394.16
2023-12-17T08:28:07.304Z,100378.50
2023-12-17T08:30:34.102Z,100390.97
2023-12-17T08:33:00.812Z,100385.81
2023-12-17T08:35:27.444Z,100384.50
2023-12-17T08:37:59.956Z,100376.47
2023-12-17T08:40:26.542Z,100378.91
2023-12-17T08:42:53.146Z,100308.41
2023-12-17T08:45:19.793Z,100385.91
2023-12-17T08:47:46.720Z,100382.59
2023-12-17T08:50:14.629Z,100390.88
2023-12-17T08:52:41.571Z,100388.91
2023-12-17T08:55:08.342Z,100386.47
2023-12-17T08:57:34.884Z,100383.88
2023-12-17T09:00:01.500Z,100383.81
2023-12-17T09:02:28.022Z,100394.13
2023-12-17T09:04:55.243Z,100391.59
2023-12-17T09:07:21.867Z,100397.31
2023-12-17T09:09:48.491Z,100391.97
2023-12-17T09:12:15.073Z,100395.16
2023-12-17T09:14:42.390Z,100402.03
2023-12-17T09:17:09.264Z,100395.72
2023-12-17T09:19:36.161Z,100397.19
2023-12-17T09:22:02.976Z,100393.78
2023-12-17T09:24:29.640Z,100394.53
2023-12-17T09:26:56.685Z,100399.94
2023-12-17T09:29:23.297Z,100392.06
2023-12-17T09:31:49.881Z,100387.47
2023-12-17T09:34:16.567Z,100390.78
2023-12-17T09:36:44.396Z,100390.09
2023-12-17T09:39:11.159Z,100389.50
2023-12-17T09:41:37.952Z,100386.56
2023-12-17T09:44:07.691Z,100386.56
2023-12-17T09:46:36.417Z,100383.69
2023-12-17T09:49:03.545Z,100380.69
2023-12-17T09:51:30.314Z,100387.13
2023-12-17T09:53:58.464Z,100383.00
2023-12-17T09:56:25.312Z,100376.34
2023-12-17T09:58:52.489Z,100378.59
2023-12-17T10:01:19.485Z,100376.59
2023-12-17T10:03:46.190Z,100372.88
2023-12-17T10:06:12.821Z,100376.75
2023-12-17T10:08:39.341Z,100369.44
2023-12-17T10:11:06.032Z,100373.09
2023-12-17T10:13:32.532Z,100372.28
2023-12-17T10:15:59.160Z,100369.00
2023-12-17T10:18:25.827Z,100362.22
2023-12-17T10:20:52.747Z,100359.88
2023-12-17T10:23:19.401Z,100358.34
2023-12-17T10:25:46.312Z,100357.84
2023-12-17T10:28:14.058Z,100358.50
2023-12-17T10:30:42.845Z,100354.00
2023-12-17T10:33:18.694Z,100356.63
2023-12-17T10:35:45.772Z,100353.47
2023-12-17T10:38:14.592Z,100340.97
2023-12-17T10:40:43.220Z,100333.63
2023-12-17T10:43:13.746Z,100337.13
2023-12-17T10:45:44.465Z,100332.97
2023-12-17T10:48:11.886Z,100325.97
2023-12-17T10:50:40.299Z,100330.41
2023-12-17T10:53:06.944Z,100335.38
2023-12-17T10:55:33.974Z,100326.47
2023-12-17T10:58:06.393Z,100314.50
2023-12-17T11:00:35.818Z,100304.09
2023-12-17T11:03:08.069Z,100298.13
2023-12-17T11:05:34.906Z,100300.88
2023-12-17T11:08:01.859Z,100300.06
2023-12-17T11:10:28.522Z,100283.94
2023-12-17T11:12:55.992Z,100278.22
2023-12-17T11:15:23.899Z,100282.81
2023-12-17T11:17:55.239Z,100272.13
2023-12-17T11:20:32.227Z,100279.94
2023-12-17T11:23:00.499Z,100270.47
2023-12-17T11:25:32.874Z,100269.50
2023-12-17T11:27:59.631Z,100269.19
2023-12-17T11:30:34.316Z,100260.03
2023-12-17T11:33:02.644Z,100261.69
2023-12-17T11:35:30.733Z,100255.84
2023-12-17T11:37:57.965Z,100240.25
2023-12-17T11:40:24.569Z,100245.09
2023-12-17T11:43:02.290Z,100215.31
2023-12-17T11:45:44.706Z,100239.91
2023-12-17T11:48:19.769Z,100228.09
2023-12-17T11:51:05.339Z,100223.59
2023-12-17T11:53:32.152Z,100223.47
2023-12-17T11:56:09.482Z,100218.19
2023-12-17T11:58:48.565Z,100222.34
2023-12-17T12:01:16.422Z,100182.00
2023-12-17T12:03:45.085Z,100214.50
2023-12-17T12:06:14.360Z,100215.34
2023-12-17T12:08:50.024Z,100214.50
2023-12-17T12:11:20.814Z,100217.56
2023-12-17T12:13:49.942Z,100216.44
2023-12-17T12:16:16.704Z,100211.53
2023-12-17T12:18:43.644Z,100209.88
2023-12-17T12:21:16.670Z,100203.59
2023-12-17T12:23:50.114Z,100178.28
2023-12-17T12:26:16.926Z,100197.34
2023-12-17T12:28:43.587Z,100190.34
2023-12-17T12:31:10.692Z,100181.28
2023-12-17T12:33:37.684Z,100178.75
2023-12-17T12:36:08.770Z,100173.84
2023-12-17T12:38:35.508Z,100108.09
2023-12-17T12:41:10.312Z,100166.25
2023-12-17T12:43:38.666Z,100168.78
2023-12-17T12:46:05.684Z,100166.34
2023-12-17T12:48:32.671Z,100165.78
2023-12-17T12:50:59.937Z,100156.25
2023-12-17T12:53:27.368Z,100148.88
2023-12-17T12:55:54.103Z,100147.22
2023-12-17T12:58:20.948Z,100135.25
2023-12-17T13:00:48.568Z,100138.22
2023-12-17T13:03:15.381Z,100130.94
2023-12-17T13:05:42.878Z,100110.88
2023-12-17T13:08:09.731Z,100121.13
2023-12-17T13:10:36.703Z,100122.47
2023-12-17T13:13:03.415Z,100121.63
2023-12-17T13:15:33.102Z,100118.56
2023-12-17T13:18:01.820Z,100117.72
2023-12-17T13:20:28.845Z,100115.28
2023-12-17T13:22:56.212Z,100106.19
2023-12-17T13:25:22.829Z,100110.66
2023-12-17T13:27:49.466Z,100109.38
2023-12-17T13:30:16.092Z,100104.75
2023-12-17T13:32:42.847Z,100099.16
2023-12-17T13:35:11.106Z,100101.84
2023-12-17T13:37:38.684Z,100105.88
2023-12-17T13:40:06.414Z,100100.56
2023-12-17T13:42:33.791Z,100108.00
2023-12-17T13:45:00.537Z,100088.97
2023-12-17T13:47:27.168Z,100092.00
2023-12-17T13:49:53.884Z,100088.66
2023-12-17T13:52:20.591Z,100095.00
2023-12-17T13:54:47.236Z,100090.03
2023-12-17T13:57:19.088Z,100085.53
2023-12-17T13:59:49.105Z,100082.38
2023-12-17T14:02:16.255Z,100066.88
2023-12-17T14:04:43.545Z,100073.38
2023-12-17T14:07:10.662Z,100090.56
2023-12-17T14:09:37.679Z,100092.91
2023-12-17T14:12:04.791Z,100084.88
2023-12-17T14:14:33.170Z,100088.84
2023-12-17T14:17:00.825Z,100072.34
2023-12-17T14:19:36.880Z,100081.66
2023-12-17T14:22:05.733Z,100088.25
2023-12-17T14:24:32.666Z,100085.22
2023-12-17T14:26:59.500Z,100073.13
2023-12-17T14:29:26.066Z,100076.19
2023-12-17T14:31:54.704Z,100071.34
2023-12-17T14:34:21.447Z,100082.34
2023-12-17T14:36:48.309Z,100084.31
2023-12-17T14:39:15.213Z,100083.09
2023-12-17T14:41:42.027Z,100088.84
2023-12-17T14:44:08.826Z,100082.75
2023-12-17T14:46:35.484Z,100086.38
2023-12-17T14:49:02.311Z,100087.81
2023-12-17T14:51:30.655Z,100088.34
2023-12-17T14:53:59.422Z,100085.31
2023-12-17T14:56:26.859Z,100083.97
2023-12-17T14:58:57.771Z,100079.63
2023-12-17T15:01:34.676Z,100091.25
2023-12-17T15:04:02.857Z,100086.13
2023-12-17T15:06:30.704Z,100096.03
2023-12-17T15:09:00.482Z,100093.50
2023-12-17T15:11:29.236Z,100093.97
2023-12-17T15:13:57.662Z,100071.94
2023-12-17T15:16:24.467Z,100097.50
2023-12-17T15:18:51.103Z,100093.47
2023-12-17T15:21:18.087Z,100092.00
2023-12-17T15:23:44.697Z,100097.34
2023-12-17T15:26:11.268Z,100093.75
2023-12-17T15:28:38.343Z,100097.66
2023-12-17T15:31:05.230Z,100092.66
2023-12-17T15:33:32.568Z,100102.97
2023-12-17T15:35:59.544Z,100093.97
2023-12-17T15:38:26.239Z,100104.41
2023-12-17T15:40:52.851Z,100102.75
2023-12-17T15:43:19.398Z,100100.13
2023-12-17T15:45:46.292Z,100110.28
2023-12-17T15:48:13.159Z,100111.41
2023-12-17T15:50:43.763Z,100107.94
2023-12-17T15:53:10.442Z,100112.53
2023-12-17T15:55:36.925Z,100114.78
2023-12-17T15:58:05.014Z,100119.22
2023-12-17T16:00:32.018Z,100121.03
2023-12-17T16:02:59.223Z,100118.38
2023-12-17T16:05:25.914Z,100112.97
2023-12-17T16:07:55.117Z,100116.72
2023-12-17T16:10:21.658Z,100124.09
2023-12-17T16:12:49.449Z,100112.13
2023-12-17T16:15:16.135Z,100118.94
2023-12-17T16:17:42.815Z,100118.66
2023-12-17T16:20:09.820Z,100110.56
2023-12-17T16:22:36.383Z,100110.69
2023-12-17T16:25:05.539Z,100117.50
2023-12-17T16:27:32.167Z,100124.19
2023-12-17T16:29:59.032Z,100119.69
2023-12-17T16:32:25.604Z,100123.59
2023-12-17T16:34:52.774Z,100127.47
2023-12-17T16:37:19.371Z,100125.09
2023-12-17T16:39:45.875Z,100122.97
2023-12-17T16:42:13.356Z,100125.50
2023-12-17T16:44:40.317Z,100124.19
2023-12-17T16:47:07.077Z,100128.03
2023-12-17T16:49:35.979Z,100117.06
2023-12-17T16:52:02.756Z,100124.16
2023-12-17T16:54:29.316Z,100117.88
2023-12-17T16:56:56.132Z,100117.88
2023-12-17T16:59:23.164Z,100120.06
2023-12-17T17:01:54.924Z,100121.03
2023-12-17T17:04:22.646Z,100123.50
2023-12-17T17:06:49.247Z,100119.19
2023-12-17T17:09:16.000Z,100117.78
2023-12-17T17:11:42.513Z,100122.28
2023-12-17T17:14:09.305Z,100123.97
2023-12-17T17:16:36.365Z,100128.28
2023-12-17T17:19:04.562Z,100130.47
2023-12-17T17:21:32.993Z,100113.81
2023-12-17T17:23:59.827Z,100140.03
2023-12-17T17:26:27.414Z,100142.59
2023-12-17T17:28:55.047Z,100145.78
2023-12-17T17:31:21.682Z,100050.50
2023-12-17T17:33:49.909Z,100141.28
2023-12-17T17:36:17.808Z,100070.38
2023-12-17T17:38:44.827Z,100111.19
2023-12-17T17:41:15.422Z,100161.34
2023-12-17T17:43:43.028Z,100160.75
2023-12-17T17:46:10.153Z,100160.63
2023-12-17T17:48:37.478Z,100136.75
2023-12-17T17:51:05.685Z,100144.22
2023-12-17T17:53:36.625Z,100166.78
2023-12-17T17:56:04.661Z,100169.00
2023-12-17T17:58:31.274Z,100164.81
2023-12-17T18:00:59.176Z,100162.41
2023-12-17T18:03:26.402Z,100170.78
2023-12-17T18:05:53.481Z,100168.22
2023-12-17T18:08:20.647Z,100166.91
2023-12-17T18:10:47.676Z,100169.28
2023-12-17T18:13:14.348Z,100173.84
2023-12-17T18:15:41.085Z,100175.03
2023-12-17T18:18:08.584Z,100176.91
2023-12-17T18:20:35.814Z,100145.38
2023-12-17T18:23:03.393Z,100178.50
2023-12-17T18:25:30.113Z,100174.75
2023-12-17T18:27:57.118Z,100164.72
2023-12-17T18:30:24.061Z,100172.25
2023-12-17T18:32:54.900Z,100170.75
2023-12-17T18:35:21.642Z,100173.47
2023-12-17T18:37:48.267Z,100176.72
2023-12-17T18:40:14.804Z,100173.50
2023-12-17T18:42:42.400Z,100172.25
2023-12-17T18:45:09.754Z,100167.84
2023-12-17T18:47:36.403Z,100170.72
2023-12-17T18:50:05.909Z,100175.06
2023-12-17T18:52:32.450Z,100179.63
2023-12-17T18:55:00.713Z,100174.25
2023-12-17T18:57:29.187Z,100146.69
2023-12-17T18:59:57.043Z,100171.13
2023-12-17T19:02:25.434Z,100171.25
2023-12-17T19:04:52.616Z,100177.97
2023-12-17T19:07:22.711Z,100171.28
2023-12-17T19:09:50.100Z,100167.44
2023-12-17T19:12:20.115Z,100164.00
2023-12-17T19:14:47.990Z,100157.91
2023-12-17T19:17:14.701Z,100156.25
2023-12-17T19:19:42.366Z,100163.78
2023-12-17T19:22:09.483Z,100151.72
2023-12-17T19:24:36.220Z,100153.88
2023-12-17T19:27:03.186Z,100148.38
2023-12-17T19:29:33.869Z,100143.94
2023-12-17T19:32:00.553Z,100142.97
2023-12-17T19:34:27.205Z,100151.00
2023-12-17T19:36:53.814Z,100141.66
2023-12-17T19:39:20.541Z,100147.66
2023-12-17T19:41:47.130Z,100145.50
2023-12-17T19:44:13.723Z,100136.66
2023-12-17T19:46:40.288Z,100151.94
2023-12-17T19:49:09.061Z,100143.72
2023-12-17T19:51:36.397Z,100133.75
2023-12-17T19:54:03.211Z,100144.16
2023-12-17T19:56:29.858Z,100134.50
2023-12-17T19:58:57.548Z,100121.81
2023-12-17T20:01:25.569Z,100134.72
2023-12-17T20:03:52.872Z,100145.41
2023-12-17T20:06:23.359Z,100136.09
2023-12-17T20:08:51.494Z,100139.00
2023-12-17T20:11:18.298Z,100140.88
2023-12-17T20:13:44.843Z,100139.81
2023-12-17T20:16:11.537Z,100139.34
2023-12-17T20:18:38.822Z,100133.03
2023-12-17T20:21:05.663Z,100123.94
2023-12-17T20:23:32.268Z,100114.75
2023-12-17T20:25:58.821Z,100124.66
2023-12-17T20:28:25.352Z,100123.72
2023-12-17T20:30:51.949Z,100127.72
2023-12-17T20:33:20.069Z,100125.31
2023-12-17T20:35:46.777Z,100122.13
2023-12-17T20:38:15.465Z,100132.53
2023-12-17T20:40:45.827Z,100130.13
2023-12-17T20:43:12.378Z,100128.72
2023-12-17T20:45:40.844Z,100123.31
2023-12-17T20:48:15.072Z,100124.53
2023-12-17T20:50:45.849Z,100113.50
2023-12-17T20:53:12.424Z,100125.69
2023-12-17T20:55:39.055Z,100125.78
2023-12-17T20:58:05.629Z,100121.28
2023-12-17T21:00:32.294Z,100096.81
2023-12-17T21:02:59.736Z,100118.47
2023-12-17T21:05:27.346Z,100116.69
2023-12-17T21:07:53.971Z,100112.97
2023-12-17T21:10:21.201Z,100116.81
2023-12-17T21:12:47.906Z,100109.94
2023-12-17T21:15:14.754Z,100111.13
2023-12-17T21:17:41.472Z,100112.91
2023-12-17T21:20:08.569Z,100108.88
2023-12-17T21:22:35.353Z,100110.44
2023-12-17T21:25:02.001Z,100106.88
2023-12-17T21:27:29.775Z,100103.63
2023-12-17T21:29:57.571Z,100107.81
2023-12-17T21:32:26.189Z,100113.50
2023-12-17T21:34:53.394Z,100110.38
2023-12-17T21:37:20.977Z,100107.75
2023-12-17T21:39:47.941Z,100032.53
2023-12-17T21:42:14.715Z,100101.94
2023-12-17T21:44:41.863Z,100102.06
2023-12-17T21:47:11.908Z,100111.22
2023-12-17T21:49:39.837Z,100115.03
2023-12-17T21:52:19.712Z,100120.88
2023-12-17T21:54:56.038Z,100117.69
2023-12-17T21:57:22.742Z,100119.84
2023-12-17T21:59:49.410Z,100131.56
2023-12-17T22:02:16.006Z,100114.41
2023-12-17T22:04:42.580Z,100113.00
2023-12-17T22:07:10.543Z,100118.72
2023-12-17T22:09:39.623Z,100090.84
2023-12-17T22:12:07.675Z,100109.16
2023-12-17T22:14:34.288Z,100105.69
2023-12-17T22:17:00.840Z,100104.59
2023-12-17T22:19:27.610Z,100108.38
2023-12-17T22:21:54.613Z,100107.63
2023-12-17T22:24:21.334Z,100102.28
2023-12-17T22:26:47.887Z,100110.47
2023-12-17T22:29:14.734Z,100108.06
2023-12-17T22:31:41.451Z,100103.47
2023-12-17T22:34:09.445Z,100093.31
2023-12-17T22:36:36.453Z,100118.53
2023-12-17T22:39:04.037Z,100108.75
2023-12-17T22:41:33.365Z,100111.16
2023-12-17T22:44:00.105Z,100097.84
2023-12-17T22:46:26.706Z,100102.81
2023-12-17T22:48:53.530Z,100109.25
2023-12-17T22:51:20.324Z,100098.44
2023-12-17T22:53:46.900Z,100109.66
2023-12-17T22:56:13.588Z,100106.94
2023-12-17T22:58:40.179Z,100106.38
2023-12-17T23:01:06.829Z,100102.38
2023-12-17T23:03:33.525Z,100095.47
2023-12-17T23:06:00.163Z,100099.66
2023-12-17T23:08:27.641Z,100095.84
2023-12-17T23:10:54.244Z,100088.09
2023-12-17T23:13:20.821Z,100091.88
2023-12-17T23:15:47.415Z,100095.06
2023-12-17T23:18:14.173Z,100085.19
2023-12-17T23:20:40.879Z,100093.13
2023-12-17T23:23:07.436Z,100090.50
2023-12-17T23:25:33.989Z,100095.63
2023-12-17T23:28:00.528Z,100087.78
2023-12-17T23:30:27.398Z,100091.66
2023-12-17T23:32:54.111Z,100094.91
2023-12-17T23:35:21.524Z,100078.69
2023-12-17T23:37:49.553Z,100088.66
2023-12-17T23:40:16.472Z,100084.25
2023-12-17T23:42:43.038Z,100091.06
2023-12-17T23:45:12.146Z,100093.78
2023-12-17T23:47:39.724Z,100025.53
2023-12-17T23:50:07.177Z,100077.84
2023-12-17T23:52:35.287Z,100067.41
2023-12-17T23:55:03.566Z,100069.91
2023-12-17T23:57:30.223Z,100077.13
2023-12-17T23:59:57.908Z,100064.66
